sensor_id;sensor_type;location;lat;lon;timestamp;P1;durP1;ratioP1;P2;durP2;ratioP2
4698;SDS011;33708;49.466;11.176;2022-08-19T00:00:33;21.20;;;18.03;;
4698;SDS011;33708;49.466;11.176;2022-08-19T00:03:03;26.80;;;20.50;;
4698;SDS011;33708;49.466;11.176;2022-08-19T00:05:29;22.70;;;19.07;;
4698;SDS011;33708;49.466;11.176;2022-08-19T00:07:56;27.90;;;20.90;;
4698;SDS011;33708;49.466;11.176;2022-08-19T00:10:22;23.30;;;19.13;;
4698;SDS011;33708;49.466;11.176;2022-08-19T00:12:49;29.50;;;19.90;;
4698;SDS011;33708;49.466;11.176;2022-08-19T00:15:16;24.10;;;18.50;;
4698;SDS011;33708;49.466;11.176;2022-08-19T00:17:43;22.43;;;18.47;;
4698;SDS011;33708;49.466;11.176;2022-08-19T00:20:11;22.73;;;19.97;;
4698;SDS011;33708;49.466;11.176;2022-08-19T00:22:38;26.60;;;19.80;;
4698;SDS011;33708;49.466;11.176;2022-08-19T00:25:06;26.80;;;20.67;;
4698;SDS011;33708;49.466;11.176;2022-08-19T00:27:32;28.90;;;21.43;;
4698;SDS011;33708;49.466;11.176;2022-08-19T00:29:57;25.20;;;21.90;;
4698;SDS011;33708;49.466;11.176;2022-08-19T00:32:24;26.83;;;22.17;;
4698;SDS011;33708;49.466;11.176;2022-08-19T00:34:50;27.83;;;23.20;;
4698;SDS011;33708;49.466;11.176;2022-08-19T00:37:17;28.23;;;23.30;;
4698;SDS011;33708;49.466;11.176;2022-08-19T00:39:44;28.87;;;22.53;;
4698;SDS011;33708;49.466;11.176;2022-08-19T00:42:10;26.30;;;20.70;;
4698;SDS011;33708;49.466;11.176;2022-08-19T00:44:36;31.43;;;21.83;;
4698;SDS011;33708;49.466;11.176;2022-08-19T00:47:03;23.67;;;21.00;;
4698;SDS011;33708;49.466;11.176;2022-08-19T00:49:34;31.10;;;22.80;;
4698;SDS011;33708;49.466;11.176;2022-08-19T00:52:16;26.57;;;21.73;;
4698;SDS011;33708;49.466;11.176;2022-08-19T00:54:46;27.40;;;20.90;;
4698;SDS011;33708;49.466;11.176;2022-08-19T00:57:14;22.50;;;19.40;;
4698;SDS011;33708;49.466;11.176;2022-08-19T00:59:44;25.67;;;20.93;;
4698;SDS011;33708;49.466;11.176;2022-08-19T01:02:13;27.40;;;21.30;;
4698;SDS011;33708;49.466;11.176;2022-08-19T01:04:40;28.10;;;20.97;;
4698;SDS011;33708;49.466;11.176;2022-08-19T01:07:05;23.23;;;19.53;;
4698;SDS011;33708;49.466;11.176;2022-08-19T01:09:32;24.77;;;19.37;;
4698;SDS011;33708;49.466;11.176;2022-08-19T01:11:58;23.00;;;19.53;;
4698;SDS011;33708;49.466;11.176;2022-08-19T01:14:23;26.53;;;20.97;;
4698;SDS011;33708;49.466;11.176;2022-08-19T01:16:50;24.00;;;20.50;;
4698;SDS011;33708;49.466;11.176;2022-08-19T01:19:40;27.53;;;20.83;;
4698;SDS011;33708;49.466;11.176;2022-08-19T01:24:46;26.00;;;19.40;;
4698;SDS011;33708;49.466;11.176;2022-08-19T01:27:11;26.67;;;20.17;;
4698;SDS011;33708;49.466;11.176;2022-08-19T01:29:39;25.17;;;19.23;;
4698;SDS011;33708;49.466;11.176;2022-08-19T01:32:07;28.47;;;20.40;;
4698;SDS011;33708;49.466;11.176;2022-08-19T01:34:34;30.63;;;21.50;;
4698;SDS011;33708;49.466;11.176;2022-08-19T01:36:59;25.37;;;19.50;;
4698;SDS011;33708;49.466;11.176;2022-08-19T01:39:30;28.43;;;21.23;;
4698;SDS011;33708;49.466;11.176;2022-08-19T01:41:55;24.93;;;19.47;;
4698;SDS011;33708;49.466;11.176;2022-08-19T01:44:21;23.93;;;18.40;;
4698;SDS011;33708;49.466;11.176;2022-08-19T01:46:49;24.50;;;20.70;;
4698;SDS011;33708;49.466;11.176;2022-08-19T01:49:20;23.93;;;20.13;;
4698;SDS011;33708;49.466;11.176;2022-08-19T01:51:47;24.13;;;20.37;;
4698;SDS011;33708;49.466;11.176;2022-08-19T01:54:15;22.80;;;19.30;;
4698;SDS011;33708;49.466;11.176;2022-08-19T01:56:41;25.87;;;21.13;;
4698;SDS011;33708;49.466;11.176;2022-08-19T01:59:12;23.93;;;19.57;;
4698;SDS011;33708;49.466;11.176;2022-08-19T02:01:41;24.53;;;19.97;;
4698;SDS011;33708;49.466;11.176;2022-08-19T02:04:06;28.13;;;20.40;;
4698;SDS011;33708;49.466;11.176;2022-08-19T02:06:32;24.93;;;20.80;;
4698;SDS011;33708;49.466;11.176;2022-08-19T02:08:58;27.80;;;19.50;;
4698;SDS011;33708;49.466;11.176;2022-08-19T02:11:26;26.03;;;21.33;;
4698;SDS011;33708;49.466;11.176;2022-08-19T02:13:56;24.87;;;18.90;;
4698;SDS011;33708;49.466;11.176;2022-08-19T02:16:22;24.70;;;19.40;;
4698;SDS011;33708;49.466;11.176;2022-08-19T02:18:48;25.73;;;20.40;;
4698;SDS011;33708;49.466;11.176;2022-08-19T02:21:15;25.80;;;20.90;;
4698;SDS011;33708;49.466;11.176;2022-08-19T02:23:45;27.30;;;20.10;;
4698;SDS011;33708;49.466;11.176;2022-08-19T02:26:11;24.17;;;20.53;;
4698;SDS011;33708;49.466;11.176;2022-08-19T02:28:37;25.37;;;20.40;;
4698;SDS011;33708;49.466;11.176;2022-08-19T02:31:07;25.93;;;21.40;;
4698;SDS011;33708;49.466;11.176;2022-08-19T02:33:37;24.30;;;20.30;;
4698;SDS011;33708;49.466;11.176;2022-08-19T02:36:04;28.60;;;19.87;;
4698;SDS011;33708;49.466;11.176;2022-08-19T02:38:31;27.87;;;20.63;;
4698;SDS011;33708;49.466;11.176;2022-08-19T02:41:04;26.90;;;21.03;;
4698;SDS011;33708;49.466;11.176;2022-08-19T02:43:37;28.77;;;22.87;;
4698;SDS011;33708;49.466;11.176;2022-08-19T02:46:18;29.67;;;21.70;;
4698;SDS011;33708;49.466;11.176;2022-08-19T02:48:50;27.03;;;21.13;;
4698;SDS011;33708;49.466;11.176;2022-08-19T02:51:28;26.50;;;20.80;;
4698;SDS011;33708;49.466;11.176;2022-08-19T02:54:02;31.77;;;20.87;;
4698;SDS011;33708;49.466;11.176;2022-08-19T02:56:29;32.23;;;21.40;;
4698;SDS011;33708;49.466;11.176;2022-08-19T02:58:56;29.00;;;22.07;;
4698;SDS011;33708;49.466;11.176;2022-08-19T03:01:24;26.43;;;21.40;;
4698;SDS011;33708;49.466;11.176;2022-08-19T03:03:52;25.17;;;20.90;;
4698;SDS011;33708;49.466;11.176;2022-08-19T03:06:18;30.20;;;23.30;;
4698;SDS011;33708;49.466;11.176;2022-08-19T03:08:45;28.00;;;22.37;;
4698;SDS011;33708;49.466;11.176;2022-08-19T03:11:12;27.63;;;22.80;;
4698;SDS011;33708;49.466;11.176;2022-08-19T03:13:42;29.40;;;22.57;;
4698;SDS011;33708;49.466;11.176;2022-08-19T03:16:12;29.33;;;22.20;;
4698;SDS011;33708;49.466;11.176;2022-08-19T03:18:38;28.30;;;20.57;;
4698;SDS011;33708;49.466;11.176;2022-08-19T03:21:04;31.57;;;22.60;;
4698;SDS011;33708;49.466;11.176;2022-08-19T03:23:30;26.50;;;20.97;;
4698;SDS011;33708;49.466;11.176;2022-08-19T03:25:57;29.40;;;23.00;;
4698;SDS011;33708;49.466;11.176;2022-08-19T03:28:23;26.17;;;21.77;;
4698;SDS011;33708;49.466;11.176;2022-08-19T03:30:56;28.57;;;20.50;;
4698;SDS011;33708;49.466;11.176;2022-08-19T03:33:29;24.60;;;20.30;;
4698;SDS011;33708;49.466;11.176;2022-08-19T03:38:42;24.87;;;21.43;;
4698;SDS011;33708;49.466;11.176;2022-08-19T03:41:13;28.20;;;22.00;;
4698;SDS011;33708;49.466;11.176;2022-08-19T03:43:41;30.10;;;19.67;;
4698;SDS011;33708;49.466;11.176;2022-08-19T03:46:14;26.93;;;22.23;;
4698;SDS011;33708;49.466;11.176;2022-08-19T03:48:45;26.63;;;20.23;;
4698;SDS011;33708;49.466;11.176;2022-08-19T03:51:16;32.20;;;22.50;;
4698;SDS011;33708;49.466;11.176;2022-08-19T03:53:44;25.27;;;20.97;;
4698;SDS011;33708;49.466;11.176;2022-08-19T03:56:09;30.87;;;21.07;;
4698;SDS011;33708;49.466;11.176;2022-08-19T03:58:35;26.17;;;21.20;;
4698;SDS011;33708;49.466;11.176;2022-08-19T04:01:02;27.10;;;20.80;;
4698;SDS011;33708;49.466;11.176;2022-08-19T04:03:33;28.00;;;20.17;;
4698;SDS011;33708;49.466;11.176;2022-08-19T04:06:22;28.77;;;20.33;;
4698;SDS011;33708;49.466;11.176;2022-08-19T04:09:14;25.90;;;21.10;;
4698;SDS011;33708;49.466;11.176;2022-08-19T04:11:41;28.40;;;21.20;;
4698;SDS011;33708;49.466;11.176;2022-08-19T04:14:11;24.00;;;20.50;;
4698;SDS011;33708;49.466;11.176;2022-08-19T04:16:38;27.90;;;19.40;;
4698;SDS011;33708;49.466;11.176;2022-08-19T04:19:04;32.00;;;22.37;;
4698;SDS011;33708;49.466;11.176;2022-08-19T04:21:31;24.87;;;18.60;;
4698;SDS011;33708;49.466;11.176;2022-08-19T04:23:57;24.13;;;19.87;;
4698;SDS011;33708;49.466;11.176;2022-08-19T04:26:25;26.77;;;21.90;;
4698;SDS011;33708;49.466;11.176;2022-08-19T04:28:55;25.50;;;20.77;;
4698;SDS011;33708;49.466;11.176;2022-08-19T04:31:22;28.43;;;18.60;;
4698;SDS011;33708;49.466;11.176;2022-08-19T04:33:52;28.03;;;21.60;;
4698;SDS011;33708;49.466;11.176;2022-08-19T04:36:20;40.70;;;21.87;;
4698;SDS011;33708;49.466;11.176;2022-08-19T04:38:48;25.23;;;20.33;;
4698;SDS011;33708;49.466;11.176;2022-08-19T04:41:15;25.60;;;21.10;;
4698;SDS011;33708;49.466;11.176;2022-08-19T04:43:59;27.13;;;21.40;;
4698;SDS011;33708;49.466;11.176;2022-08-19T04:46:25;23.70;;;19.80;;
4698;SDS011;33708;49.466;11.176;2022-08-19T04:48:51;25.50;;;21.13;;
4698;SDS011;33708;49.466;11.176;2022-08-19T04:51:18;25.63;;;20.97;;
4698;SDS011;33708;49.466;11.176;2022-08-19T04:53:45;25.50;;;19.50;;
4698;SDS011;33708;49.466;11.176;2022-08-19T04:56:14;29.60;;;21.70;;
4698;SDS011;33708;49.466;11.176;2022-08-19T04:58:42;27.80;;;20.77;;
4698;SDS011;33708;49.466;11.176;2022-08-19T05:01:12;25.93;;;20.50;;
4698;SDS011;33708;49.466;11.176;2022-08-19T05:03:39;24.80;;;19.97;;
4698;SDS011;33708;49.466;11.176;2022-08-19T05:06:06;24.57;;;20.57;;
4698;SDS011;33708;49.466;11.176;2022-08-19T05:08:33;30.80;;;19.53;;
4698;SDS011;33708;49.466;11.176;2022-08-19T05:11:09;30.87;;;19.40;;
4698;SDS011;33708;49.466;11.176;2022-08-19T05:13:39;26.37;;;20.30;;
4698;SDS011;33708;49.466;11.176;2022-08-19T05:16:05;26.23;;;20.37;;
4698;SDS011;33708;49.466;11.176;2022-08-19T05:18:31;24.33;;;18.73;;
4698;SDS011;33708;49.466;11.176;2022-08-19T05:21:17;23.47;;;19.63;;
4698;SDS011;33708;49.466;11.176;2022-08-19T05:24:02;24.10;;;19.90;;
4698;SDS011;33708;49.466;11.176;2022-08-19T05:26:28;21.87;;;17.70;;
4698;SDS011;33708;49.466;11.176;2022-08-19T05:28:54;21.93;;;19.13;;
4698;SDS011;33708;49.466;11.176;2022-08-19T05:31:20;25.90;;;20.83;;
4698;SDS011;33708;49.466;11.176;2022-08-19T05:33:46;26.73;;;19.77;;
4698;SDS011;33708;49.466;11.176;2022-08-19T05:36:12;27.90;;;19.60;;
4698;SDS011;33708;49.466;11.176;2022-08-19T05:38:38;31.20;;;20.80;;
4698;SDS011;33708;49.466;11.176;2022-08-19T05:41:08;24.40;;;19.33;;
4698;SDS011;33708;49.466;11.176;2022-08-19T05:43:35;23.90;;;18.27;;
4698;SDS011;33708;49.466;11.176;2022-08-19T05:46:02;29.57;;;20.23;;
4698;SDS011;33708;49.466;11.176;2022-08-19T05:48:30;24.80;;;20.03;;
4698;SDS011;33708;49.466;11.176;2022-08-19T05:51:03;26.10;;;19.50;;
4698;SDS011;33708;49.466;11.176;2022-08-19T05:53:31;25.50;;;19.77;;
4698;SDS011;33708;49.466;11.176;2022-08-19T05:55:57;24.13;;;18.87;;
4698;SDS011;33708;49.466;11.176;2022-08-19T05:58:23;24.50;;;19.27;;
4698;SDS011;33708;49.466;11.176;2022-08-19T06:00:49;23.60;;;18.90;;
4698;SDS011;33708;49.466;11.176;2022-08-19T06:03:16;22.13;;;18.37;;
4698;SDS011;33708;49.466;11.176;2022-08-19T06:05:42;30.87;;;18.50;;
4698;SDS011;33708;49.466;11.176;2022-08-19T06:08:07;23.07;;;19.70;;
4698;SDS011;33708;49.466;11.176;2022-08-19T06:10:33;25.60;;;19.27;;
4698;SDS011;33708;49.466;11.176;2022-08-19T06:12:59;30.53;;;19.47;;
4698;SDS011;33708;49.466;11.176;2022-08-19T06:15:24;21.83;;;16.63;;
4698;SDS011;33708;49.466;11.176;2022-08-19T06:17:50;21.73;;;17.40;;
4698;SDS011;33708;49.466;11.176;2022-08-19T06:20:16;21.20;;;17.40;;
4698;SDS011;33708;49.466;11.176;2022-08-19T06:22:44;21.30;;;16.80;;
4698;SDS011;33708;49.466;11.176;2022-08-19T06:25:12;25.03;;;18.03;;
4698;SDS011;33708;49.466;11.176;2022-08-19T06:27:39;22.23;;;18.07;;
4698;SDS011;33708;49.466;11.176;2022-08-19T06:30:05;20.93;;;15.50;;
4698;SDS011;33708;49.466;11.176;2022-08-19T06:32:32;20.13;;;15.80;;
4698;SDS011;33708;49.466;11.176;2022-08-19T06:34:58;21.90;;;16.47;;
4698;SDS011;33708;49.466;11.176;2022-08-19T06:37:23;20.53;;;16.27;;
4698;SDS011;33708;49.466;11.176;2022-08-19T06:39:49;18.13;;;15.20;;
4698;SDS011;33708;49.466;11.176;2022-08-19T06:42:15;17.20;;;14.07;;
4698;SDS011;33708;49.466;11.176;2022-08-19T06:44:43;16.17;;;12.80;;
4698;SDS011;33708;49.466;11.176;2022-08-19T06:47:12;20.50;;;13.90;;
4698;SDS011;33708;49.466;11.176;2022-08-19T06:49:39;16.60;;;12.40;;
4698;SDS011;33708;49.466;11.176;2022-08-19T06:52:05;15.60;;;11.50;;
4698;SDS011;33708;49.466;11.176;2022-08-19T06:54:31;15.40;;;11.73;;
4698;SDS011;33708;49.466;11.176;2022-08-19T06:56:57;14.73;;;11.47;;
4698;SDS011;33708;49.466;11.176;2022-08-19T06:59:27;15.37;;;11.20;;
4698;SDS011;33708;49.466;11.176;2022-08-19T07:01:56;15.90;;;11.37;;
4698;SDS011;33708;49.466;11.176;2022-08-19T07:04:25;18.10;;;11.43;;
4698;SDS011;33708;49.466;11.176;2022-08-19T07:07:01;16.00;;;10.57;;
4698;SDS011;33708;49.466;11.176;2022-08-19T07:09:39;17.97;;;12.27;;
4698;SDS011;33708;49.466;11.176;2022-08-19T07:12:06;16.83;;;12.07;;
4698;SDS011;33708;49.466;11.176;2022-08-19T07:14:35;19.03;;;13.70;;
4698;SDS011;33708;49.466;11.176;2022-08-19T07:17:02;16.03;;;12.70;;
4698;SDS011;33708;49.466;11.176;2022-08-19T07:19:30;20.33;;;14.00;;
4698;SDS011;33708;49.466;11.176;2022-08-19T07:21:56;16.97;;;13.97;;
4698;SDS011;33708;49.466;11.176;2022-08-19T07:24:23;18.77;;;15.40;;
4698;SDS011;33708;49.466;11.176;2022-08-19T07:26:51;19.00;;;14.50;;
4698;SDS011;33708;49.466;11.176;2022-08-19T07:29:18;16.93;;;13.57;;
4698;SDS011;33708;49.466;11.176;2022-08-19T07:31:45;19.07;;;14.10;;
4698;SDS011;33708;49.466;11.176;2022-08-19T07:34:11;18.60;;;14.23;;
4698;SDS011;33708;49.466;11.176;2022-08-19T07:36:39;21.70;;;14.50;;
4698;SDS011;33708;49.466;11.176;2022-08-19T07:39:08;19.70;;;13.80;;
4698;SDS011;33708;49.466;11.176;2022-08-19T07:41:36;18.53;;;13.97;;
4698;SDS011;33708;49.466;11.176;2022-08-19T07:44:04;18.97;;;13.00;;
4698;SDS011;33708;49.466;11.176;2022-08-19T07:46:33;16.77;;;12.43;;
4698;SDS011;33708;49.466;11.176;2022-08-19T07:49:00;18.60;;;12.90;;
4698;SDS011;33708;49.466;11.176;2022-08-19T07:51:26;18.37;;;12.77;;
4698;SDS011;33708;49.466;11.176;2022-08-19T07:53:52;18.40;;;12.87;;
4698;SDS011;33708;49.466;11.176;2022-08-19T07:56:19;17.50;;;12.40;;
4698;SDS011;33708;49.466;11.176;2022-08-19T07:58:47;18.07;;;13.80;;
4698;SDS011;33708;49.466;11.176;2022-08-19T08:01:15;17.70;;;13.67;;
4698;SDS011;33708;49.466;11.176;2022-08-19T08:03:44;18.43;;;13.80;;
4698;SDS011;33708;49.466;11.176;2022-08-19T08:06:29;17.73;;;12.50;;
4698;SDS011;33708;49.466;11.176;2022-08-19T08:09:14;19.80;;;12.97;;
4698;SDS011;33708;49.466;11.176;2022-08-19T08:14:19;20.43;;;13.90;;
4698;SDS011;33708;49.466;11.176;2022-08-19T08:16:52;16.97;;;12.30;;
4698;SDS011;33708;49.466;11.176;2022-08-19T08:19:19;19.27;;;14.90;;
4698;SDS011;33708;49.466;11.176;2022-08-19T08:21:46;17.97;;;13.13;;
4698;SDS011;33708;49.466;11.176;2022-08-19T08:24:12;18.27;;;13.00;;
4698;SDS011;33708;49.466;11.176;2022-08-19T08:26:38;21.57;;;13.10;;
4698;SDS011;33708;49.466;11.176;2022-08-19T08:29:05;19.87;;;13.23;;
4698;SDS011;33708;49.466;11.176;2022-08-19T08:31:33;18.10;;;13.00;;
4698;SDS011;33708;49.466;11.176;2022-08-19T08:33:59;17.30;;;12.23;;
4698;SDS011;33708;49.466;11.176;2022-08-19T08:36:24;22.27;;;13.77;;
4698;SDS011;33708;49.466;11.176;2022-08-19T08:38:50;19.50;;;13.57;;
4698;SDS011;33708;49.466;11.176;2022-08-19T08:41:31;23.17;;;14.37;;
4698;SDS011;33708;49.466;11.176;2022-08-19T08:44:02;22.23;;;16.20;;
4698;SDS011;33708;49.466;11.176;2022-08-19T08:49:18;21.57;;;16.17;;
4698;SDS011;33708;49.466;11.176;2022-08-19T08:52:03;20.20;;;14.57;;
4698;SDS011;33708;49.466;11.176;2022-08-19T08:54:34;21.70;;;16.43;;
4698;SDS011;33708;49.466;11.176;2022-08-19T08:57:04;21.93;;;15.00;;
4698;SDS011;33708;49.466;11.176;2022-08-19T08:59:45;20.03;;;14.67;;
4698;SDS011;33708;49.466;11.176;2022-08-19T09:02:15;23.53;;;16.30;;
4698;SDS011;33708;49.466;11.176;2022-08-19T09:04:42;22.57;;;16.20;;
4698;SDS011;33708;49.466;11.176;2022-08-19T09:15:53;19.83;;;15.27;;
4698;SDS011;33708;49.466;11.176;2022-08-19T09:18:23;22.50;;;15.97;;
4698;SDS011;33708;49.466;11.176;2022-08-19T09:20:48;22.93;;;16.23;;
4698;SDS011;33708;49.466;11.176;2022-08-19T09:23:14;21.50;;;16.17;;
4698;SDS011;33708;49.466;11.176;2022-08-19T09:25:40;23.03;;;15.13;;
4698;SDS011;33708;49.466;11.176;2022-08-19T09:28:06;19.87;;;14.77;;
4698;SDS011;33708;49.466;11.176;2022-08-19T09:30:34;18.20;;;13.40;;
4698;SDS011;33708;49.466;11.176;2022-08-19T09:33:04;22.50;;;16.70;;
4698;SDS011;33708;49.466;11.176;2022-08-19T09:35:31;23.00;;;14.67;;
4698;SDS011;33708;49.466;11.176;2022-08-19T09:37:58;20.40;;;14.70;;
4698;SDS011;33708;49.466;11.176;2022-08-19T09:40:24;19.00;;;14.83;;
4698;SDS011;33708;49.466;11.176;2022-08-19T09:42:54;24.40;;;13.70;;
4698;SDS011;33708;49.466;11.176;2022-08-19T09:45:20;24.87;;;15.83;;
4698;SDS011;33708;49.466;11.176;2022-08-19T09:47:47;28.33;;;15.63;;
4698;SDS011;33708;49.466;11.176;2022-08-19T09:50:15;29.93;;;18.10;;
4698;SDS011;33708;49.466;11.176;2022-08-19T09:52:41;30.50;;;20.73;;
4698;SDS011;33708;49.466;11.176;2022-08-19T09:55:08;27.87;;;18.17;;
4698;SDS011;33708;49.466;11.176;2022-08-19T09:57:35;25.60;;;18.57;;
4698;SDS011;33708;49.466;11.176;2022-08-19T10:00:03;34.27;;;20.80;;
4698;SDS011;33708;49.466;11.176;2022-08-19T10:02:29;33.40;;;21.10;;
4698;SDS011;33708;49.466;11.176;2022-08-19T10:04:55;30.50;;;20.47;;
4698;SDS011;33708;49.466;11.176;2022-08-19T10:07:39;29.97;;;20.07;;
4698;SDS011;33708;49.466;11.176;2022-08-19T10:10:05;24.90;;;19.53;;
4698;SDS011;33708;49.466;11.176;2022-08-19T10:12:32;29.10;;;21.10;;
4698;SDS011;33708;49.466;11.176;2022-08-19T10:14:59;27.70;;;19.77;;
4698;SDS011;33708;49.466;11.176;2022-08-19T10:17:25;25.57;;;20.13;;
4698;SDS011;33708;49.466;11.176;2022-08-19T10:19:51;25.80;;;20.13;;
4698;SDS011;33708;49.466;11.176;2022-08-19T10:22:18;30.80;;;23.23;;
4698;SDS011;33708;49.466;11.176;2022-08-19T10:24:45;30.70;;;21.43;;
4698;SDS011;33708;49.466;11.176;2022-08-19T10:27:10;33.50;;;21.37;;
4698;SDS011;33708;49.466;11.176;2022-08-19T10:29:38;33.13;;;22.90;;
4698;SDS011;33708;49.466;11.176;2022-08-19T10:32:04;30.97;;;21.73;;
4698;SDS011;33708;49.466;11.176;2022-08-19T10:34:33;32.63;;;23.67;;
4698;SDS011;33708;49.466;11.176;2022-08-19T10:37:01;33.60;;;21.93;;
4698;SDS011;33708;49.466;11.176;2022-08-19T10:39:30;35.23;;;24.50;;
4698;SDS011;33708;49.466;11.176;2022-08-19T10:41:57;31.87;;;20.83;;
4698;SDS011;33708;49.466;11.176;2022-08-19T10:44:23;28.93;;;19.87;;
4698;SDS011;33708;49.466;11.176;2022-08-19T10:46:50;34.13;;;22.40;;
4698;SDS011;33708;49.466;11.176;2022-08-19T10:49:17;36.07;;;24.00;;
4698;SDS011;33708;49.466;11.176;2022-08-19T10:51:44;27.50;;;20.53;;
4698;SDS011;33708;49.466;11.176;2022-08-19T10:54:29;34.33;;;21.23;;
4698;SDS011;33708;49.466;11.176;2022-08-19T10:57:16;25.53;;;20.33;;
4698;SDS011;33708;49.466;11.176;2022-08-19T10:59:41;28.23;;;20.20;;
4698;SDS011;33708;49.466;11.176;2022-08-19T11:02:08;27.73;;;20.60;;
4698;SDS011;33708;49.466;11.176;2022-08-19T11:04:36;29.50;;;21.33;;
4698;SDS011;33708;49.466;11.176;2022-08-19T11:07:03;28.37;;;21.63;;
4698;SDS011;33708;49.466;11.176;2022-08-19T11:09:29;27.40;;;20.83;;
4698;SDS011;33708;49.466;11.176;2022-08-19T11:11:55;31.67;;;21.10;;
4698;SDS011;33708;49.466;11.176;2022-08-19T11:14:22;33.10;;;22.60;;
4698;SDS011;33708;49.466;11.176;2022-08-19T11:16:50;32.03;;;22.00;;
4698;SDS011;33708;49.466;11.176;2022-08-19T11:19:18;32.10;;;22.03;;
4698;SDS011;33708;49.466;11.176;2022-08-19T11:21:45;25.97;;;20.23;;
4698;SDS011;33708;49.466;11.176;2022-08-19T11:24:13;28.47;;;21.73;;
4698;SDS011;33708;49.466;11.176;2022-08-19T11:26:45;32.10;;;21.87;;
4698;SDS011;33708;49.466;11.176;2022-08-19T11:29:13;27.47;;;20.60;;
4698;SDS011;33708;49.466;11.176;2022-08-19T11:31:43;30.67;;;22.00;;
4698;SDS011;33708;49.466;11.176;2022-08-19T11:34:10;30.53;;;21.10;;
4698;SDS011;33708;49.466;11.176;2022-08-19T11:36:39;31.93;;;21.33;;
4698;SDS011;33708;49.466;11.176;2022-08-19T11:39:07;35.03;;;23.87;;
4698;SDS011;33708;49.466;11.176;2022-08-19T11:41:35;29.20;;;21.60;;
4698;SDS011;33708;49.466;11.176;2022-08-19T11:44:00;29.60;;;22.67;;
4698;SDS011;33708;49.466;11.176;2022-08-19T11:46:28;29.63;;;22.17;;
4698;SDS011;33708;49.466;11.176;2022-08-19T11:48:54;30.50;;;22.40;;
4698;SDS011;33708;49.466;11.176;2022-08-19T11:51:22;29.47;;;23.23;;
4698;SDS011;33708;49.466;11.176;2022-08-19T11:53:52;29.90;;;22.37;;
4698;SDS011;33708;49.466;11.176;2022-08-19T11:56:19;35.77;;;23.30;;
4698;SDS011;33708;49.466;11.176;2022-08-19T11:58:45;33.20;;;22.77;;
4698;SDS011;33708;49.466;11.176;2022-08-19T12:01:12;33.60;;;22.07;;
4698;SDS011;33708;49.466;11.176;2022-08-19T12:03:42;27.27;;;20.80;;
4698;SDS011;33708;49.466;11.176;2022-08-19T12:06:14;29.00;;;23.30;;
4698;SDS011;33708;49.466;11.176;2022-08-19T12:08:42;30.23;;;23.70;;
4698;SDS011;33708;49.466;11.176;2022-08-19T12:11:09;29.17;;;20.77;;
4698;SDS011;33708;49.466;11.176;2022-08-19T12:13:37;29.40;;;22.40;;
4698;SDS011;33708;49.466;11.176;2022-08-19T12:16:07;27.30;;;20.90;;
4698;SDS011;33708;49.466;11.176;2022-08-19T12:18:40;28.87;;;21.57;;
4698;SDS011;33708;49.466;11.176;2022-08-19T12:21:08;27.70;;;20.53;;
4698;SDS011;33708;49.466;11.176;2022-08-19T12:23:36;29.83;;;21.27;;
4698;SDS011;33708;49.466;11.176;2022-08-19T12:26:02;26.97;;;21.20;;
4698;SDS011;33708;49.466;11.176;2022-08-19T12:28:28;28.13;;;20.30;;
4698;SDS011;33708;49.466;11.176;2022-08-19T12:30:55;25.73;;;19.60;;
4698;SDS011;33708;49.466;11.176;2022-08-19T12:33:21;25.90;;;21.60;;
4698;SDS011;33708;49.466;11.176;2022-08-19T12:35:50;24.97;;;19.30;;
4698;SDS011;33708;49.466;11.176;2022-08-19T12:38:16;31.67;;;20.50;;
4698;SDS011;33708;49.466;11.176;2022-08-19T12:40:45;30.27;;;19.30;;
4698;SDS011;33708;49.466;11.176;2022-08-19T12:43:11;29.43;;;21.37;;
4698;SDS011;33708;49.466;11.176;2022-08-19T12:45:38;27.70;;;21.20;;
4698;SDS011;33708;49.466;11.176;2022-08-19T12:48:04;26.30;;;20.23;;
4698;SDS011;33708;49.466;11.176;2022-08-19T12:50:30;30.03;;;23.37;;
4698;SDS011;33708;49.466;11.176;2022-08-19T12:52:56;31.27;;;22.23;;
4698;SDS011;33708;49.466;11.176;2022-08-19T12:55:22;27.00;;;20.53;;
4698;SDS011;33708;49.466;11.176;2022-08-19T12:57:49;28.73;;;22.07;;
4698;SDS011;33708;49.466;11.176;2022-08-19T13:00:16;33.70;;;21.40;;
4698;SDS011;33708;49.466;11.176;2022-08-19T13:02:44;28.00;;;22.50;;
4698;SDS011;33708;49.466;11.176;2022-08-19T13:05:12;27.40;;;22.17;;
4698;SDS011;33708;49.466;11.176;2022-08-19T13:07:40;30.90;;;24.20;;
4698;SDS011;33708;49.466;11.176;2022-08-19T13:10:09;31.10;;;22.27;;
4698;SDS011;33708;49.466;11.176;2022-08-19T13:12:36;26.70;;;20.10;;
4698;SDS011;33708;49.466;11.176;2022-08-19T13:15:03;31.80;;;21.43;;
4698;SDS011;33708;49.466;11.176;2022-08-19T13:17:29;26.80;;;20.43;;
4698;SDS011;33708;49.466;11.176;2022-08-19T13:19:55;28.87;;;21.27;;
4698;SDS011;33708;49.466;11.176;2022-08-19T13:22:20;27.70;;;20.83;;
4698;SDS011;33708;49.466;11.176;2022-08-19T13:24:46;28.10;;;21.40;;
4698;SDS011;33708;49.466;11.176;2022-08-19T13:27:11;27.43;;;20.80;;
4698;SDS011;33708;49.466;11.176;2022-08-19T13:29:39;30.63;;;21.80;;
4698;SDS011;33708;49.466;11.176;2022-08-19T13:32:24;27.53;;;21.53;;
4698;SDS011;33708;49.466;11.176;2022-08-19T13:35:08;28.53;;;21.97;;
4698;SDS011;33708;49.466;11.176;2022-08-19T13:37:34;29.83;;;23.07;;
4698;SDS011;33708;49.466;11.176;2022-08-19T13:40:10;28.00;;;20.87;;
4698;SDS011;33708;49.466;11.176;2022-08-19T13:42:42;29.13;;;22.93;;
4698;SDS011;33708;49.466;11.176;2022-08-19T13:45:09;26.90;;;22.30;;
4698;SDS011;33708;49.466;11.176;2022-08-19T13:47:35;32.13;;;23.20;;
4698;SDS011;33708;49.466;11.176;2022-08-19T13:50:14;30.70;;;22.17;;
4698;SDS011;33708;49.466;11.176;2022-08-19T13:52:42;33.47;;;23.97;;
4698;SDS011;33708;49.466;11.176;2022-08-19T13:55:09;30.23;;;24.40;;
4698;SDS011;33708;49.466;11.176;2022-08-19T13:57:36;30.37;;;22.90;;
4698;SDS011;33708;49.466;11.176;2022-08-19T14:00:07;31.67;;;23.23;;
4698;SDS011;33708;49.466;11.176;2022-08-19T14:02:35;28.00;;;21.93;;
4698;SDS011;33708;49.466;11.176;2022-08-19T14:05:03;35.73;;;20.87;;
4698;SDS011;33708;49.466;11.176;2022-08-19T14:07:30;28.53;;;22.00;;
4698;SDS011;33708;49.466;11.176;2022-08-19T14:09:56;24.63;;;20.03;;
4698;SDS011;33708;49.466;11.176;2022-08-19T14:12:22;30.53;;;21.20;;
4698;SDS011;33708;49.466;11.176;2022-08-19T14:14:48;24.97;;;21.13;;
4698;SDS011;33708;49.466;11.176;2022-08-19T14:17:14;25.70;;;19.53;;
4698;SDS011;33708;49.466;11.176;2022-08-19T14:19:40;27.83;;;18.53;;
4698;SDS011;33708;49.466;11.176;2022-08-19T14:22:07;27.87;;;15.70;;
4698;SDS011;33708;49.466;11.176;2022-08-19T14:24:32;22.50;;;16.43;;
4698;SDS011;33708;49.466;11.176;2022-08-19T14:26:58;27.47;;;15.17;;
4698;SDS011;33708;49.466;11.176;2022-08-19T14:29:24;19.97;;;13.17;;
4698;SDS011;33708;49.466;11.176;2022-08-19T14:31:52;22.00;;;14.33;;
4698;SDS011;33708;49.466;11.176;2022-08-19T14:34:18;22.60;;;14.53;;
4698;SDS011;33708;49.466;11.176;2022-08-19T14:36:43;18.13;;;12.10;;
4698;SDS011;33708;49.466;11.176;2022-08-19T14:39:10;16.10;;;11.60;;
4698;SDS011;33708;49.466;11.176;2022-08-19T14:41:36;15.50;;;10.50;;
4698;SDS011;33708;49.466;11.176;2022-08-19T14:44:06;15.10;;;10.70;;
4698;SDS011;33708;49.466;11.176;2022-08-19T14:46:31;15.70;;;10.63;;